Terminal Aerodrome Forecast
Issued by NWS

Home | Current Version | Previous Version | Text Only | Print | Product List | Glossary On
Versions: 1 2 3 4 5 6 7 8 9 10 11 12 13 14 15 16
557
FTUS46 KLOX 271722
TAFSBA
TAF
KSBA 271722Z 2718/2818 VRB03KT P6SM BKN050
     FM272100 28012KT P6SM SCT050 BKN150
     FM280200 33008KT P6SM SCT150
     FM281000 VRB03KT P6SM SCT150=

USA.gov is the U.S. government's official web portal to all federal, state and local government web resources and services.